Time;durP1;ratioP1;P1;durP2;ratioP2;P2;SDS_P1;SDS_P2;PMS_P1;PMS_P2;Temp;Humidity;BMP_temperature;BMP_pressure;BME280_temperature;BME280_humidity;BME280_pressure;Samples;Min_cycle;Max_cycle;Signal;HPM_P1;HPM_P2
2022/04/27 00:01:11;;;;;;;3.57;1.10;;;9.30;99.90;;;;;;5114008;28;20896;-54
2022/04/27 00:03:41;;;;;;;3.23;1.10;;;9.20;99.90;;;;;;5116660;28;20468;-54
2022/04/27 00:06:08;;;;;;;3.50;1.20;;;9.30;99.90;;;;;;5111668;28;20515;-56
2022/04/27 00:08:35;;;;;;;4.23;1.30;;;9.30;99.90;;;;;;5116869;28;20444;-50
2022/04/27 00:11:03;;;;;;;2.03;1.30;;;9.10;99.90;;;;;;5110620;28;20496;-55
2022/04/27 00:13:30;;;;;;;2.60;1.60;;;9.00;99.90;;;;;;5116136;28;20475;-55
2022/04/27 00:15:57;;;;;;;2.33;1.20;;;9.00;99.90;;;;;;5116744;28;20456;-51
2022/04/27 00:18:24;;;;;;;2.33;1.30;;;8.80;99.90;;;;;;5114114;28;20580;-55
2022/04/27 00:20:51;;;;;;;2.20;1.30;;;8.80;99.90;;;;;;5116292;28;20535;-51
2022/04/27 00:23:25;;;;;;;2.87;1.20;;;8.70;99.90;;;;;;5112293;28;20749;-52
2022/04/27 00:25:52;;;;;;;2.27;1.10;;;8.80;99.90;;;;;;5118896;28;20510;-51
2022/04/27 00:28:20;;;;;;;3.53;1.70;;;8.90;99.90;;;;;;5115773;28;20546;-53
2022/04/27 00:30:47;;;;;;;5.60;2.10;;;8.90;99.90;;;;;;5119884;28;20468;-53
2022/04/27 00:33:15;;;;;;;3.60;1.97;;;8.80;99.90;;;;;;5113742;28;20846;-55
2022/04/27 00:35:42;;;;;;;6.33;3.07;;;8.80;99.90;;;;;;5120531;28;20475;-53
2022/04/27 00:38:12;;;;;;;2.90;1.60;;;8.70;99.90;;;;;;5116775;28;20790;-56
2022/04/27 00:40:39;;;;;;;6.67;2.63;;;8.70;99.90;;;;;;5120446;28;20527;-57
2022/04/27 00:43:06;;;;;;;4.57;2.03;;;8.80;99.90;;;;;;5119258;28;20559;-52
2022/04/27 00:45:35;;;;;;;4.60;2.90;;;8.90;99.90;;;;;;5115972;28;20545;-56
2022/04/27 00:48:02;;;;;;;3.23;1.90;;;8.90;99.90;;;;;;5119662;28;20571;-57
2022/04/27 00:50:32;;;;;;;5.60;2.47;;;8.80;99.90;;;;;;5118459;28;20810;-55
2022/04/27 00:53:00;;;;;;;5.43;1.83;;;8.80;99.90;;;;;;5114709;28;20633;-54
2022/04/27 00:55:28;;;;;;;6.53;1.77;;;8.70;99.90;;;;;;5094366;28;20515;-55
2022/04/27 00:57:56;;;;;;;4.37;2.00;;;8.60;99.90;;;;;;5070358;28;20876;-56
2022/04/27 01:00:25;;;;;;;3.73;1.90;;;8.60;99.90;;;;;;5116631;28;20447;-54
2022/04/27 01:02:54;;;;;;;3.97;1.70;;;8.60;99.90;;;;;;5114884;28;20963;-52
2022/04/27 01:05:21;;;;;;;3.40;1.53;;;8.60;99.90;;;;;;5117826;28;20888;-52
2022/04/27 01:07:48;;;;;;;3.50;1.87;;;8.60;99.90;;;;;;5114722;28;20484;-54
2022/04/27 01:10:15;;;;;;;4.40;2.50;;;8.60;99.90;;;;;;5118233;28;20535;-50
2022/04/27 01:12:42;;;;;;;4.23;1.80;;;8.50;99.90;;;;;;5117616;28;20551;-54
2022/04/27 01:15:10;;;;;;;2.87;1.73;;;8.50;99.90;;;;;;5119434;28;20521;-51
2022/04/27 01:17:38;;;;;;;5.33;2.30;;;8.60;99.90;;;;;;5118706;28;20796;-49
2022/04/27 01:20:08;;;;;;;6.00;2.93;;;8.60;99.90;;;;;;5117344;28;20546;-49
2022/04/27 01:22:37;;;;;;;7.03;3.10;;;8.60;99.90;;;;;;5119874;28;20539;-55
2022/04/27 01:25:06;;;;;;;4.13;2.13;;;8.60;99.90;;;;;;5116672;28;20502;-53
2022/04/27 01:27:35;;;;;;;6.67;3.80;;;8.70;99.90;;;;;;5117819;28;20492;-49
2022/04/27 01:30:02;;;;;;;6.07;2.73;;;8.60;99.90;;;;;;5118601;28;20480;-53
2022/04/27 01:32:29;;;;;;;3.33;1.97;;;8.60;99.90;;;;;;5110217;28;20548;-55
2022/04/27 01:34:55;;;;;;;7.80;2.27;;;8.60;99.90;;;;;;5118508;28;20494;-55
2022/04/27 01:40:12;;;;;;;5.33;2.40;;;8.90;99.90;;;;;;5052545;28;20474;-54
2022/04/27 01:42:42;;;;;;;6.57;2.80;;;9.10;99.90;;;;;;5089539;28;20905;-55
2022/04/27 01:45:10;;;;;;;7.83;3.53;;;9.10;99.90;;;;;;5108272;28;20480;-53
2022/04/27 01:47:37;;;;;;;8.20;4.30;;;9.30;99.90;;;;;;5119157;28;20480;-54
2022/04/27 01:50:04;;;;;;;8.77;3.87;;;9.20;99.90;;;;;;5115687;28;20496;-55
2022/04/27 01:55:16;;;;;;;7.83;3.33;;;9.20;99.90;;;;;;5102309;28;20432;-53
2022/04/27 01:57:43;;;;;;;7.80;4.20;;;9.30;99.90;;;;;;5117763;28;20538;-56
2022/04/27 02:00:12;;;;;;;8.03;5.10;;;9.30;99.90;;;;;;5103522;28;20463;-53
2022/04/27 02:02:40;;;;;;;6.70;3.73;;;9.40;99.90;;;;;;5115979;28;20547;-52
2022/04/27 02:05:07;;;;;;;6.80;3.50;;;9.40;99.90;;;;;;5118294;28;20856;-55
2022/04/27 02:07:34;;;;;;;7.20;3.50;;;9.40;99.90;;;;;;5116188;28;20710;-49
2022/04/27 02:10:50;;;;;;;5.93;3.07;;;9.50;99.90;;;;;;5094521;28;20527;-52
2022/04/27 02:13:18;;;;;;;8.20;4.23;;;9.50;99.90;;;;;;5119177;28;20543;-56
2022/04/27 02:15:45;;;;;;;9.20;4.80;;;9.50;99.90;;;;;;5116230;28;20822;-55
2022/04/27 02:18:12;;;;;;;7.80;3.23;;;9.50;99.90;;;;;;5117005;28;20697;-54
2022/04/27 02:24:01;;;;;;;6.80;4.10;;;9.40;99.90;;;;;;5117449;28;20403;-50
2022/04/27 02:26:35;;;;;;;9.37;4.10;;;9.40;99.90;;;;;;5115082;28;20499;-50
2022/04/27 02:29:21;;;;;;;10.03;3.97;;;9.50;99.90;;;;;;5057948;28;20843;-54
2022/04/27 02:35:10;;;;;;;10.47;5.27;;;9.60;99.90;;;;;;5116004;28;20432;-51
2022/04/27 02:37:37;;;;;;;6.80;3.23;;;9.60;99.90;;;;;;5113748;28;20460;-49
2022/04/27 02:40:06;;;;;;;9.00;4.37;;;9.70;99.90;;;;;;5111677;28;20883;-52
2022/04/27 02:42:32;;;;;;;9.87;4.53;;;9.70;99.90;;;;;;5112336;28;20448;-52
2022/04/27 02:45:01;;;;;;;9.70;3.67;;;9.70;99.90;;;;;;5116593;28;20825;-55
2022/04/27 02:47:28;;;;;;;9.80;5.00;;;9.70;99.90;;;;;;5108655;28;20575;-53
2022/04/27 02:52:42;;;;;;;8.10;3.90;;;9.70;99.90;;;;;;5117713;28;20432;-54
2022/04/27 02:55:09;;;;;;;7.73;4.23;;;9.60;99.90;;;;;;5117232;28;20555;-53
2022/04/27 02:57:36;;;;;;;9.73;4.33;;;9.60;99.90;;;;;;5117788;28;20527;-53
2022/04/27 03:00:05;;;;;;;7.40;4.13;;;9.50;99.90;;;;;;5111429;28;20488;-53
2022/04/27 03:02:32;;;;;;;5.27;3.30;;;9.40;99.90;;;;;;5116116;28;20501;-51
2022/04/27 03:05:00;;;;;;;8.77;3.37;;;9.40;99.90;;;;;;5115619;28;20682;-51
2022/04/27 03:07:28;;;;;;;7.17;3.53;;;9.50;99.90;;;;;;5115853;28;20571;-54
2022/04/27 03:09:55;;;;;;;6.80;3.27;;;9.50;99.90;;;;;;5115752;28;20478;-51
2022/04/27 03:12:22;;;;;;;5.27;2.97;;;9.50;99.90;;;;;;5113517;28;20461;-49
2022/04/27 03:14:49;;;;;;;5.43;3.40;;;9.50;99.90;;;;;;5116463;28;20444;-49
2022/04/27 03:17:17;;;;;;;6.60;2.87;;;9.60;99.90;;;;;;5112962;28;20888;-54
2022/04/27 03:19:44;;;;;;;6.53;3.90;;;9.60;99.90;;;;;;5117832;28;20487;-53
2022/04/27 03:22:11;;;;;;;5.50;3.33;;;9.60;99.90;;;;;;5115544;28;20548;-56
2022/04/27 03:24:38;;;;;;;7.20;3.60;;;9.70;99.90;;;;;;5116066;28;20539;-56
2022/04/27 03:27:06;;;;;;;6.53;2.83;;;9.70;99.90;;;;;;5114602;28;20520;-50
2022/04/27 03:29:35;;;;;;;6.27;2.50;;;9.70;99.90;;;;;;5116680;28;20445;-53
2022/04/27 03:32:01;;;;;;;5.20;2.70;;;9.70;99.90;;;;;;5115516;28;20556;-53
2022/04/27 03:34:30;;;;;;;7.03;4.03;;;9.80;99.90;;;;;;5115566;28;20476;-54
2022/04/27 03:36:57;;;;;;;5.23;2.67;;;9.80;99.90;;;;;;5112245;28;20456;-55
2022/04/27 03:39:24;;;;;;;12.27;3.43;;;9.80;99.90;;;;;;5108125;28;20538;-56
2022/04/27 03:41:50;;;;;;;4.80;2.90;;;9.80;99.90;;;;;;5116252;28;20609;-56
2022/04/27 03:44:17;;;;;;;7.30;3.10;;;9.70;99.90;;;;;;5116711;28;20531;-53
2022/04/27 03:46:44;;;;;;;5.50;3.43;;;9.80;99.90;;;;;;5110535;28;20445;-53
2022/04/27 03:49:11;;;;;;;4.27;2.27;;;9.70;99.90;;;;;;5116111;28;20480;-53
2022/04/27 03:51:40;;;;;;;5.60;2.53;;;9.60;99.90;;;;;;5114420;28;20472;-55
2022/04/27 03:54:07;;;;;;;7.60;2.20;;;9.60;99.90;;;;;;5116631;28;20523;-56
2022/04/27 03:56:36;;;;;;;6.90;2.90;;;9.90;99.90;;;;;;5112977;28;20509;-53
2022/04/27 03:59:02;;;;;;;6.60;2.67;;;10.00;99.90;;;;;;5113782;28;20465;-56
2022/04/27 04:01:29;;;;;;;5.93;2.37;;;10.10;99.90;;;;;;5098059;28;20822;-57
2022/04/27 04:03:58;;;;;;;4.57;3.20;;;10.20;99.90;;;;;;5114080;28;20451;-56
2022/04/27 04:06:25;;;;;;;5.77;3.13;;;10.00;99.90;;;;;;5116276;28;20945;-55
2022/04/27 04:08:53;;;;;;;4.47;2.80;;;9.80;99.90;;;;;;5109590;28;20485;-56
2022/04/27 04:11:20;;;;;;;4.87;3.27;;;9.70;99.90;;;;;;5116689;28;20445;-54
2022/04/27 04:13:47;;;;;;;4.27;2.67;;;9.50;99.90;;;;;;5113254;28;20445;-55
2022/04/27 04:16:17;;;;;;;7.87;2.27;;;9.40;99.90;;;;;;5116262;28;20536;-54
2022/04/27 04:18:46;;;;;;;4.70;2.30;;;9.40;99.90;;;;;;5116368;28;20529;-55
2022/04/27 04:21:13;;;;;;;6.33;3.20;;;9.50;99.90;;;;;;5113495;28;20452;-56
2022/04/27 04:23:40;;;;;;;8.00;3.70;;;9.80;99.90;;;;;;5115542;28;20527;-54
2022/04/27 04:28:53;;;;;;;5.37;2.87;;;9.70;99.90;;;;;;5116146;28;20468;-55
2022/04/27 04:31:20;;;;;;;6.57;3.20;;;9.90;99.90;;;;;;5100308;28;20525;-53
2022/04/27 04:33:47;;;;;;;2.80;1.80;;;9.80;99.90;;;;;;5111243;28;20787;-52
2022/04/27 04:36:13;;;;;;;8.60;4.10;;;9.70;99.90;;;;;;5115770;28;20851;-53
2022/04/27 04:38:40;;;;;;;5.33;3.13;;;9.70;99.90;;;;;;5116463;28;20452;-50
2022/04/27 04:41:10;;;;;;;8.15;4.55;;;9.40;99.90;;;;;;5114684;28;20521;-50
2022/04/27 04:43:37;;;;;;;6.87;3.90;;;9.30;99.90;;;;;;5094410;28;20585;-54
2022/04/27 04:46:04;;;;;;;5.23;3.40;;;9.30;99.90;;;;;;5087503;28;20832;-54
2022/04/27 04:48:31;;;;;;;4.53;2.20;;;9.20;99.90;;;;;;5093452;28;20500;-51
2022/04/27 04:50:58;;;;;;;6.03;3.57;;;9.20;99.90;;;;;;5094580;28;20543;-48
2022/04/27 04:53:25;;;;;;;4.73;2.33;;;9.20;99.90;;;;;;5080437;28;20565;-54
2022/04/27 04:55:52;;;;;;;5.17;2.77;;;9.30;99.90;;;;;;5089901;28;20518;-52
2022/04/27 04:58:20;;;;;;;4.90;2.60;;;9.60;99.90;;;;;;5072923;28;20441;-53
2022/04/27 05:00:48;;;;;;;5.60;2.00;;;10.00;99.90;;;;;;5094209;28;20532;-50
2022/04/27 05:03:15;;;;;;;5.00;1.90;;;10.20;99.90;;;;;;5092773;28;20465;-54
2022/04/27 05:05:42;;;;;;;4.33;1.97;;;10.40;99.90;;;;;;5087886;28;20809;-68
2022/04/27 05:08:10;;;;;;;3.13;2.00;;;10.60;99.90;;;;;;5094174;28;20480;-67
2022/04/27 05:10:37;;;;;;;4.30;2.13;;;10.40;99.90;;;;;;5094400;28;20457;-68
2022/04/27 05:13:04;;;;;;;5.03;2.10;;;10.40;99.90;;;;;;5098386;28;20837;-68
2022/04/27 05:15:33;;;;;;;6.73;2.90;;;10.30;99.90;;;;;;5096639;28;20900;-68
2022/04/27 05:18:02;;;;;;;5.40;3.00;;;10.20;99.90;;;;;;5094473;28;20441;-65
2022/04/27 05:20:29;;;;;;;5.73;3.70;;;10.10;99.90;;;;;;5097364;28;20873;-66
2022/04/27 05:22:59;;;;;;;3.77;2.03;;;10.00;99.90;;;;;;5096165;28;20459;-66
2022/04/27 05:25:26;;;;;;;4.80;2.40;;;9.80;99.90;;;;;;5079723;28;20449;-66
2022/04/27 05:27:53;;;;;;;4.93;2.60;;;10.00;99.90;;;;;;5092407;28;20480;-66
2022/04/27 05:33:23;;;;;;;6.97;3.20;;;10.50;99.90;;;;;;5095359;28;20424;-65
2022/04/27 05:35:50;;;;;;;3.70;1.70;;;10.70;99.90;;;;;;5091764;28;20488;-65
2022/04/27 05:38:22;;;;;;;7.97;2.67;;;10.90;99.90;;;;;;5090207;28;20885;-66
2022/04/27 05:40:52;;;;;;;5.07;2.00;;;11.00;93.90;;;;;;5084488;28;20453;-65
2022/04/27 05:43:19;;;;;;;5.77;2.50;;;10.80;77.40;;;;;;5095391;28;20489;-65
2022/04/27 05:45:48;;;;;;;5.87;2.70;;;10.70;97.50;;;;;;5094618;28;20461;-64
2022/04/27 05:48:18;;;;;;;6.20;2.07;;;10.60;98.00;;;;;;5093051;28;20792;-64
2022/04/27 05:50:48;;;;;;;7.10;3.50;;;10.50;99.90;;;;;;5093946;28;20557;-64
2022/04/27 05:53:15;;;;;;;5.87;2.50;;;10.40;99.90;;;;;;5095792;28;20514;-64
2022/04/27 05:55:43;;;;;;;5.90;2.60;;;10.40;99.90;;;;;;5094277;28;20943;-64
2022/04/27 05:58:10;;;;;;;5.07;3.20;;;10.40;99.90;;;;;;5095255;28;20464;-64
2022/04/27 06:00:41;;;;;;;4.70;2.57;;;10.50;99.90;;;;;;5095680;28;20495;-64
2022/04/27 06:03:10;;;;;;;6.80;3.10;;;10.50;99.90;;;;;;5083977;28;20475;-64
2022/04/27 06:05:46;;;;;;;3.30;1.97;;;10.70;99.90;;;;;;5094723;28;20449;-63
2022/04/27 06:08:15;;;;;;;5.53;2.60;;;10.70;99.90;;;;;;5093408;28;20494;-63
2022/04/27 06:10:41;;;;;;;4.73;2.07;;;10.80;94.80;;;;;;5093933;28;20454;-63
2022/04/27 06:13:08;;;;;;;3.83;1.93;;;10.90;91.40;;;;;;5087577;28;20604;-63
2022/04/27 06:15:37;;;;;;;8.77;4.17;;;10.80;83.40;;;;;;5092548;28;20962;-63
2022/04/27 06:18:07;;;;;;;6.37;2.50;;;10.80;94.20;;;;;;5091940;28;20462;-63
2022/04/27 06:20:42;;;;;;;4.10;2.20;;;10.70;95.20;;;;;;5092930;28;20473;-64
2022/04/27 06:23:14;;;;;;;7.07;3.00;;;10.50;99.90;;;;;;5090071;28;20479;-65
2022/04/27 06:25:48;;;;;;;7.10;3.30;;;10.50;99.90;;;;;;5093349;28;20453;-64
2022/04/27 06:28:21;;;;;;;4.80;2.77;;;10.30;99.90;;;;;;5090808;28;20578;-66
2022/04/27 06:30:57;;;;;;;6.87;2.60;;;10.20;99.90;;;;;;5081536;28;20515;-64
2022/04/27 06:33:36;;;;;;;4.73;2.83;;;10.10;99.90;;;;;;5088992;28;20775;-64
2022/04/27 06:42:56;;;;;;;3.87;2.13;;;10.60;99.90;;;;;;5030258;28;20568;-64
2022/04/27 06:45:27;;;;;;;6.90;4.10;;;10.70;99.90;;;;;;4989120;28;20448;-54
2022/04/27 06:47:54;;;;;;;5.57;3.20;;;10.70;99.90;;;;;;5002366;28;20460;-56
2022/04/27 06:50:21;;;;;;;5.50;2.97;;;10.50;99.90;;;;;;5080851;28;20469;-54
2022/04/27 06:52:48;;;;;;;4.07;2.10;;;10.70;99.90;;;;;;5095148;28;20976;-55
2022/04/27 06:55:18;;;;;;;6.50;3.73;;;10.70;99.90;;;;;;5094907;28;20821;-55
2022/04/27 06:57:44;;;;;;;4.67;1.90;;;10.90;99.90;;;;;;5094477;28;20464;-57
2022/04/27 07:00:13;;;;;;;4.27;2.70;;;11.10;99.90;;;;;;5091767;28;20462;-55
2022/04/27 07:02:40;;;;;;;5.67;3.17;;;11.20;89.00;;;;;;5087063;28;21046;-53
2022/04/27 07:05:12;;;;;;;4.57;2.40;;;11.20;61.10;;;;;;5095010;28;20472;-55
2022/04/27 07:07:39;;;;;;;6.20;3.10;;;11.20;60.00;;;;;;5090735;28;20465;-50
2022/04/27 07:10:06;;;;;;;4.97;2.33;;;11.10;54.30;;;;;;5084332;28;20559;-55
2022/04/27 07:12:33;;;;;;;3.67;2.07;;;11.00;81.00;;;;;;5082819;28;20932;-55
2022/04/27 07:15:00;;;;;;;3.73;2.60;;;10.90;88.90;;;;;;5092513;28;20507;-56
2022/04/27 07:17:29;;;;;;;4.00;2.57;;;11.00;74.50;;;;;;5091541;28;20449;-55
2022/04/27 07:19:56;;;;;;;4.93;2.27;;;11.00;86.00;;;;;;5082418;28;20448;-55
2022/04/27 07:22:23;;;;;;;4.03;1.87;;;11.00;78.70;;;;;;5094498;28;20458;-55
2022/04/27 07:24:51;;;;;;;4.27;2.07;;;11.20;92.20;;;;;;5092009;28;20461;-56
2022/04/27 07:27:18;;;;;;;3.53;2.13;;;11.40;79.50;;;;;;5078747;28;20452;-57
2022/04/27 07:29:45;;;;;;;3.20;2.00;;;11.60;49.30;;;;;;5042477;28;20537;-55
2022/04/27 07:32:12;;;;;;;4.47;2.07;;;11.80;32.40;;;;;;5061517;28;20726;-54
2022/04/27 07:34:41;;;;;;;2.90;1.70;;;11.90;5.00;;;;;;5091740;28;20450;-55
2022/04/27 07:37:10;;;;;;;3.13;1.33;;;12.00;1.00;;;;;;5084617;28;20447;-55
2022/04/27 07:39:37;;;;;;;2.17;1.30;;;12.10;1.00;;;;;;5093120;28;20438;-53
2022/04/27 07:42:05;;;;;;;2.90;2.00;;;12.20;1.00;;;;;;5093220;28;20441;-56
2022/04/27 07:44:32;;;;;;;4.37;2.33;;;12.30;1.00;;;;;;5091140;28;20438;-56
2022/04/27 07:46:59;;;;;;;3.20;1.37;;;12.40;1.00;;;;;;5074628;28;20449;-56
2022/04/27 07:49:26;;;;;;;3.97;1.50;;;12.30;1.00;;;;;;5090702;28;20538;-59
2022/04/27 07:51:54;;;;;;;3.37;1.50;;;12.30;1.00;;;;;;5088241;28;20453;-58
2022/04/27 07:54:21;;;;;;;3.77;1.30;;;12.00;1.00;;;;;;5041830;28;20477;-58
2022/04/27 07:56:48;;;;;;;4.73;1.43;;;12.00;1.00;;;;;;5092213;28;20779;-55
2022/04/27 07:59:15;;;;;;;3.00;1.77;;;12.10;1.00;;;;;;5091982;28;20446;-54
2022/04/27 08:05:05;;;;;;;2.77;1.50;;;12.00;1.00;;;;;;5083735;28;20428;-55
2022/04/27 08:07:38;;;;;;;2.87;1.80;;;11.90;1.00;;;;;;5091386;28;20962;-58
2022/04/27 08:10:13;;;;;;;3.63;1.20;;;12.00;1.00;;;;;;5089749;28;20584;-58
2022/04/27 08:12:42;;;;;;;3.70;1.80;;;12.00;1.00;;;;;;5087143;28;20444;-57
2022/04/27 08:15:10;;;;;;;3.43;2.30;;;12.10;1.00;;;;;;5088747;28;20550;-57
2022/04/27 08:17:51;;;;;;;3.10;1.30;;;12.20;1.00;;;;;;5091800;28;20937;-57
2022/04/27 08:23:07;;;;;;;3.60;1.60;;;12.60;1.00;;;;;;5087988;28;20441;-57
2022/04/27 08:25:34;;;;;;;2.97;1.80;;;12.60;99.90;;;;;;5089963;28;20806;-56
2022/04/27 08:28:03;;;;;;;2.97;1.27;;;12.60;99.90;;;;;;5091940;28;20908;-56
2022/04/27 08:30:31;;;;;;;2.17;1.20;;;12.80;1.00;;;;;;5079889;28;20481;-55
2022/04/27 08:32:59;;;;;;;3.00;1.57;;;12.80;99.90;;;;;;5091223;28;20828;-57
2022/04/27 08:35:26;;;;;;;2.07;1.20;;;13.00;19.60;;;;;;5076379;28;20459;-57
2022/04/27 08:37:53;;;;;;;2.20;1.13;;;12.90;1.00;;;;;;5081322;28;20449;-56
2022/04/27 08:40:22;;;;;;;2.50;1.20;;;13.20;45.50;;;;;;5039266;28;20505;-53
2022/04/27 08:42:49;;;;;;;2.20;1.30;;;13.40;1.00;;;;;;5089675;28;20483;-55
2022/04/27 08:45:17;;;;;;;2.77;1.23;;;13.70;1.00;;;;;;5094270;28;20445;-59
2022/04/27 08:47:46;;;;;;;2.20;1.00;;;13.80;1.00;;;;;;5096487;28;20544;-58
2022/04/27 08:50:13;;;;;;;4.50;1.20;;;14.00;1.00;;;;;;5095896;28;20481;-57
2022/04/27 08:52:41;;;;;;;4.00;1.20;;;13.70;99.90;;;;;;5093861;28;20445;-57
2022/04/27 08:55:09;;;;;;;1.90;1.30;;;13.70;7.70;;;;;;5096064;28;20536;-55
2022/04/27 08:57:39;;;;;;;2.80;1.30;;;13.70;99.90;;;;;;5092517;28;20449;-58
2022/04/27 09:00:08;;;;;;;2.30;1.30;;;13.60;1.00;;;;;;5093666;28;20438;-56
2022/04/27 09:05:59;;;;;;;2.73;1.50;;;13.80;99.90;;;;;;5052551;28;20420;-59
2022/04/27 09:08:44;;;;;;;2.93;1.40;;;13.80;99.90;;;;;;4678798;28;20464;-58
2022/04/27 09:11:15;;;;;;;5.03;2.23;;;13.90;1.00;;;;;;4811532;28;20784;-54
2022/04/27 09:13:51;;;;;;;3.13;1.30;;;14.00;1.00;;;;;;5084413;28;20797;-58
2022/04/27 09:16:21;;;;;;;3.20;1.87;;;14.20;99.90;;;;;;5088615;28;20457;-57
2022/04/27 09:21:58;;;;;;;2.83;1.30;;;14.20;99.90;;;;;;5079130;28;20740;-58
2022/04/27 09:24:25;;;;;;;2.83;1.50;;;14.00;6.30;;;;;;5090616;28;20461;-56
2022/04/27 09:27:02;;;;;;;2.67;1.70;;;14.00;99.90;;;;;;5093395;28;20520;-55
2022/04/27 09:29:30;;;;;;;3.53;1.60;;;14.00;1.00;;;;;;5092621;28;20484;-58
2022/04/27 09:31:58;;;;;;;6.53;2.03;;;14.00;99.90;;;;;;5096280;28;20449;-56
2022/04/27 09:34:28;;;;;;;5.20;1.70;;;14.00;99.90;;;;;;5095764;28;20453;-58
2022/04/27 09:36:56;;;;;;;5.20;1.20;;;14.10;99.90;;;;;;5095340;28;20499;-57
2022/04/27 09:39:25;;;;;;;19.27;2.40;;;14.30;1.00;;;;;;5094078;28;20445;-58
2022/04/27 09:41:52;;;;;;;15.60;2.50;;;14.60;1.00;;;;;;5076360;28;20541;-59
2022/04/27 09:44:32;;;;;;;1.80;1.10;;;14.80;1.00;;;;;;5095026;28;20487;-58
2022/04/27 09:47:00;;;;;;;1.70;1.00;;;15.00;99.90;;;;;;4989200;28;20449;-58
2022/04/27 09:49:28;;;;;;;1.63;0.80;;;15.00;99.90;;;;;;5074926;28;20470;-58
2022/04/27 09:51:58;;;;;;;3.30;1.13;;;14.90;99.90;;;;;;5089914;28;20826;-57
2022/04/27 09:54:28;;;;;;;1.00;0.70;;;14.90;99.90;;;;;;5086349;28;20548;-58
2022/04/27 09:56:56;;;;;;;3.43;0.90;;;14.80;99.90;;;;;;5073395;28;20461;-58
2022/04/27 09:59:26;;;;;;;1.40;0.90;;;14.70;99.90;;;;;;5061983;28;20443;-58
2022/04/27 10:01:56;;;;;;;1.23;0.80;;;14.70;99.90;;;;;;4992979;28;20898;-58
2022/04/27 10:04:26;;;;;;;1.10;0.80;;;14.60;99.90;;;;;;5092248;28;20461;-58
2022/04/27 10:06:53;;;;;;;0.80;0.53;;;14.70;99.90;;;;;;5096632;28;20502;-54
2022/04/27 10:09:20;;;;;;;2.30;0.73;;;14.60;99.90;;;;;;5091893;28;20519;-52
2022/04/27 10:11:48;;;;;;;0.93;0.53;;;14.70;99.90;;;;;;5093788;28;20437;-59
2022/04/27 10:14:15;;;;;;;1.07;0.60;;;14.90;99.30;;;;;;5042263;28;20876;-52
2022/04/27 10:16:45;;;;;;;0.97;0.50;;;15.00;9.60;;;;;;5051799;28;20441;-52
2022/04/27 10:19:15;;;;;;;0.83;0.50;;;15.20;97.60;;;;;;5091166;28;20503;-53
2022/04/27 10:21:56;;;;;;;0.90;0.60;;;15.50;1.00;;;;;;5094618;28;20446;-54
2022/04/27 10:24:49;;;;;;;1.00;0.70;;;15.70;1.00;;;;;;5090489;28;20485;-54
2022/04/27 10:27:18;;;;;;;0.97;0.60;;;15.90;1.00;;;;;;5091898;28;20437;-54
2022/04/27 10:33:07;;;;;;;1.20;0.80;;;15.90;1.00;;;;;;5090970;28;20517;-56
2022/04/27 10:35:36;;;;;;;0.90;0.63;;;15.80;1.00;;;;;;5094040;28;20948;-56
2022/04/27 10:38:05;;;;;;;2.10;0.87;;;15.90;1.00;;;;;;5090493;28;20554;-58
2022/04/27 10:40:34;;;;;;;1.40;0.80;;;15.90;1.00;;;;;;5085318;28;20446;-58
2022/04/27 10:43:27;;;;;;;1.30;0.80;;;15.70;1.00;;;;;;4993610;28;20907;-57
2022/04/27 10:45:59;;;;;;;0.90;0.60;;;15.50;1.00;;;;;;5055557;28;20446;-56
2022/04/27 10:48:47;;;;;;;1.03;0.63;;;15.40;1.00;;;;;;5092488;28;20457;-57
2022/04/27 10:51:15;;;;;;;1.20;0.67;;;15.60;1.00;;;;;;5092451;28;20477;-56
2022/04/27 10:53:43;;;;;;;1.17;0.70;;;15.70;1.00;;;;;;5091987;28;20454;-57
2022/04/27 10:56:23;;;;;;;1.10;0.77;;;15.70;1.00;;;;;;5092481;28;20551;-57
2022/04/27 10:58:50;;;;;;;0.80;0.60;;;15.50;1.00;;;;;;5091846;28;21046;-56
2022/04/27 11:01:20;;;;;;;1.20;0.70;;;15.40;1.00;;;;;;5093712;28;20511;-57
2022/04/27 11:04:05;;;;;;;3.37;0.60;;;15.70;1.00;;;;;;5057923;28;20457;-58
2022/04/27 11:07:06;;;;;;;0.87;0.60;;;15.90;1.00;;;;;;5008746;28;20515;-56
2022/04/27 11:09:51;;;;;;;1.30;0.70;;;15.90;1.00;;;;;;5089468;28;20478;-56
2022/04/27 11:12:19;;;;;;;1.00;0.80;;;16.00;1.00;;;;;;5090489;28;20457;-56
2022/04/27 11:14:47;;;;;;;1.40;0.60;;;15.80;1.00;;;;;;5088101;28;20465;-57
2022/04/27 11:17:28;;;;;;;0.90;0.60;;;15.80;1.00;;;;;;5088677;28;20541;-56
2022/04/27 11:23:29;;;;;;;1.40;0.80;;;15.80;1.00;;;;;;5027666;28;20430;-55
2022/04/27 11:26:00;;;;;;;1.30;0.80;;;15.60;1.00;;;;;;5084672;28;20438;-56
2022/04/27 11:28:29;;;;;;;0.97;0.60;;;15.30;1.00;;;;;;5064666;28;20916;-56
2022/04/27 11:30:57;;;;;;;1.20;0.80;;;15.20;1.00;;;;;;5092317;28;20478;-56
2022/04/27 11:33:24;;;;;;;0.87;0.70;;;15.30;1.00;;;;;;5046385;28;20453;-55
2022/04/27 11:35:51;;;;;;;3.60;0.73;;;15.80;1.00;;;;;;5091756;28;20488;-55
2022/04/27 11:38:19;;;;;;;1.20;0.80;;;15.80;1.00;;;;;;5057425;28;20518;-55
2022/04/27 11:40:48;;;;;;;1.83;0.80;;;16.40;1.00;;;;;;5080771;28;20917;-56
2022/04/27 11:43:24;;;;;;;1.10;0.80;;;16.60;1.00;;;;;;5087008;28;20456;-57
2022/04/27 11:45:51;;;;;;;1.17;0.77;;;16.90;1.00;;;;;;5087399;28;20457;-57
2022/04/27 11:48:22;;;;;;;3.53;0.80;;;16.90;1.00;;;;;;5029441;28;20442;-58
2022/04/27 11:50:50;;;;;;;0.90;0.60;;;17.10;1.00;;;;;;5080938;28;20480;-57
2022/04/27 11:53:17;;;;;;;1.10;0.80;;;17.40;1.00;;;;;;5092613;28;20441;-57
2022/04/27 11:55:49;;;;;;;0.93;0.70;;;17.60;1.00;;;;;;5047610;28;20462;-56
2022/04/27 11:58:23;;;;;;;1.13;0.80;;;17.60;1.00;;;;;;5089956;28;20896;-58
2022/04/27 12:00:55;;;;;;;1.03;0.70;;;18.20;1.00;;;;;;5088522;28;20821;-59
2022/04/27 12:03:23;;;;;;;1.00;0.70;;;18.20;1.00;;;;;;5088885;28;20685;-59
2022/04/27 12:05:51;;;;;;;0.90;0.70;;;18.40;1.00;;;;;;5087914;28;20556;-59
2022/04/27 12:08:20;;;;;;;1.07;0.70;;;18.10;1.00;;;;;;5089324;28;20448;-60
2022/04/27 12:10:49;;;;;;;1.10;0.80;;;18.20;1.00;;;;;;5086555;28;20505;-60
2022/04/27 12:13:17;;;;;;;1.20;0.70;;;18.10;1.00;;;;;;5087916;28;21122;-60
2022/04/27 12:15:48;;;;;;;1.00;0.67;;;18.20;1.00;;;;;;5089754;28;20454;-60
2022/04/27 12:18:16;;;;;;;1.40;0.80;;;18.10;1.00;;;;;;5091171;28;20575;-60
2022/04/27 12:20:44;;;;;;;1.30;0.80;;;17.80;1.00;;;;;;5088652;28;20596;-60
2022/04/27 12:23:12;;;;;;;1.13;0.63;;;17.40;1.00;;;;;;5089407;28;20437;-60
2022/04/27 12:25:45;;;;;;;1.00;0.80;;;17.50;1.00;;;;;;5062882;28;20453;-60
2022/04/27 12:28:14;;;;;;;1.00;0.80;;;16.90;1.00;;;;;;5089910;28;20503;-59
2022/04/27 12:30:42;;;;;;;1.40;0.80;;;17.00;1.00;;;;;;5090832;28;20485;-58
2022/04/27 12:33:11;;;;;;;1.20;0.80;;;16.80;1.00;;;;;;5089315;28;20768;-59
2022/04/27 12:38:27;;;;;;;1.03;0.77;;;16.90;1.00;;;;;;5070678;28;20418;-58
2022/04/27 12:40:54;;;;;;;1.00;0.60;;;16.70;1.00;;;;;;5070478;28;20458;-59
2022/04/27 12:43:23;;;;;;;0.83;0.70;;;16.70;1.00;;;;;;5065820;28;20478;-59
2022/04/27 12:46:04;;;;;;;1.30;0.80;;;16.80;1.00;;;;;;5071144;28;20804;-59
2022/04/27 12:48:35;;;;;;;1.13;0.83;;;16.90;1.00;;;;;;5071107;28;20462;-60
2022/04/27 12:51:03;;;;;;;1.03;0.73;;;16.50;1.00;;;;;;5070655;28;20483;-59
2022/04/27 12:53:30;;;;;;;1.10;0.80;;;16.30;1.00;;;;;;5053487;28;20458;-59
2022/04/27 12:56:08;;;;;;;2.37;0.70;;;16.50;1.00;;;;;;5071793;28;20462;-61
2022/04/27 12:58:35;;;;;;;1.00;0.80;;;16.50;1.00;;;;;;5090480;28;20477;-60
2022/04/27 13:01:02;;;;;;;1.73;0.80;;;16.20;1.00;;;;;;5093380;28;20468;-59
2022/04/27 13:03:34;;;;;;;0.90;0.60;;;15.80;1.00;;;;;;5093033;28;20457;-59
2022/04/27 13:06:01;;;;;;;1.10;0.70;;;15.80;1.00;;;;;;5088816;28;20485;-60
2022/04/27 13:08:28;;;;;;;1.40;1.00;;;15.80;1.00;;;;;;5091744;28;20842;-57
2022/04/27 13:13:39;;;;;;;1.10;0.80;;;15.40;1.00;;;;;;5094200;28;20421;-59
2022/04/27 13:16:06;;;;;;;1.20;0.80;;;15.30;1.00;;;;;;5091856;28;20492;-59
2022/04/27 13:18:35;;;;;;;1.13;0.90;;;15.20;1.00;;;;;;5089673;28;20453;-60
2022/04/27 13:21:01;;;;;;;2.10;1.10;;;15.20;1.00;;;;;;5090244;28;20533;-60
2022/04/27 13:23:28;;;;;;;1.23;0.90;;;15.30;1.00;;;;;;5089623;28;20485;-59
2022/04/27 13:25:55;;;;;;;1.17;0.83;;;15.10;1.00;;;;;;5090644;28;20441;-59
2022/04/27 13:28:22;;;;;;;1.30;0.80;;;15.10;1.00;;;;;;5089467;28;20498;-60
2022/04/27 13:30:50;;;;;;;1.33;0.90;;;15.20;1.00;;;;;;5089960;28;20481;-59
2022/04/27 13:33:17;;;;;;;1.00;0.77;;;15.20;1.00;;;;;;5092972;28;20919;-60
2022/04/27 13:35:45;;;;;;;1.00;0.70;;;15.30;1.00;;;;;;5093354;28;20807;-59
2022/04/27 13:38:12;;;;;;;1.63;0.80;;;15.20;1.00;;;;;;5087289;28;20869;-59
2022/04/27 13:40:40;;;;;;;1.10;0.77;;;15.40;1.00;;;;;;5085900;28;20535;-58
2022/04/27 13:43:07;;;;;;;1.23;0.87;;;15.30;1.00;;;;;;5081718;28;20446;-59
2022/04/27 13:45:34;;;;;;;1.20;0.80;;;15.30;1.00;;;;;;5082055;28;20826;-60
2022/04/27 13:48:57;;;;;;;1.20;0.90;;;15.50;1.00;;;;;;5089833;28;20523;-60
2022/04/27 13:51:26;;;;;;;1.07;0.80;;;15.70;1.00;;;;;;5006548;28;20505;-59
2022/04/27 13:53:54;;;;;;;1.40;0.90;;;15.90;1.00;;;;;;5092537;28;20540;-59
2022/04/27 13:56:28;;;;;;;1.00;0.70;;;16.20;1.00;;;;;;5095621;28;20507;-59